createdAt,value
2023-04-18T05:03:09.281Z,43.33
2023-04-18T05:04:10.019Z,42.14
2023-04-18T05:05:09.986Z,41.96
2023-04-18T05:06:10.016Z,41.89
2023-04-18T05:07:09.029Z,41.82
2023-04-18T05:08:10.053Z,41.73
2023-04-18T05:09:09.106Z,41.74
2023-04-18T05:10:09.152Z,41.70
2023-04-18T05:11:09.145Z,41.64
2023-04-18T05:12:10.162Z,41.62
2023-04-18T05:13:09.153Z,41.61
2023-04-18T05:14:10.171Z,41.58
2023-04-18T05:15:10.242Z,41.59
2023-04-18T05:16:09.381Z,41.54
2023-04-18T05:17:10.340Z,41.58
2023-04-18T05:18:09.434Z,41.51
2023-04-18T05:19:09.509Z,41.50
2023-04-18T05:20:10.546Z,41.49
2023-04-18T05:21:10.604Z,41.41
2023-04-18T05:22:09.652Z,41.47
2023-04-18T05:23:10.689Z,41.59
2023-04-18T05:24:10.742Z,41.46
2023-04-18T05:25:09.805Z,41.47
2023-04-18T05:26:09.811Z,41.46
2023-04-18T05:27:10.850Z,41.37
2023-04-18T05:28:10.916Z,41.38
2023-04-18T05:29:09.947Z,41.38
2023-04-18T05:30:10.988Z,41.37
2023-04-18T05:31:10.075Z,41.33
2023-04-18T05:32:10.116Z,41.34
2023-04-18T05:33:11.153Z,41.36
2023-04-18T05:34:10.181Z,41.37
2023-04-18T05:35:11.269Z,41.36
2023-04-18T05:36:10.280Z,41.37
2023-04-18T05:37:10.324Z,41.43
2023-04-18T05:38:11.379Z,41.38
2023-04-18T05:39:11.409Z,41.34
2023-04-18T05:40:11.458Z,41.37
2023-04-18T05:41:11.523Z,41.36
2023-04-18T05:42:11.579Z,41.32
2023-04-18T05:43:10.628Z,41.36
2023-04-18T05:44:11.700Z,41.34
2023-04-18T05:45:11.753Z,41.36
2023-04-18T05:46:11.816Z,41.35
2023-04-18T05:47:11.871Z,41.39
2023-04-18T05:48:11.914Z,41.35
2023-04-18T05:49:11.988Z,41.34
2023-04-18T05:50:12.037Z,41.32
2023-04-18T05:51:12.121Z,41.33
2023-04-18T05:52:11.155Z,41.32
2023-04-18T05:53:12.212Z,41.35
2023-04-18T05:54:12.516Z,41.31
2023-04-18T05:55:12.328Z,41.31
2023-04-18T05:56:12.393Z,41.31
2023-04-18T05:57:11.452Z,41.27
2023-04-18T05:58:12.519Z,41.27
2023-04-18T05:59:12.561Z,41.27
2023-04-18T06:00:11.634Z,41.25
2023-04-18T06:01:12.690Z,41.26
2023-04-18T06:02:12.873Z,41.27
2023-04-18T06:03:12.012Z,41.22
2023-04-18T06:04:13.067Z,41.29
2023-04-18T06:05:13.180Z,41.25
2023-04-18T06:06:12.024Z,41.26
2023-04-18T06:07:13.178Z,41.23
2023-04-18T06:08:13.083Z,41.26
2023-04-18T06:09:13.152Z,41.29
2023-04-18T06:10:12.236Z,41.28
2023-04-18T06:11:13.276Z,41.31
2023-04-18T06:12:13.352Z,41.32
2023-04-18T06:13:13.404Z,41.29
2023-04-18T06:14:13.748Z,41.27
2023-04-18T06:15:13.527Z,41.31
2023-04-18T06:16:13.612Z,41.25
2023-04-18T06:17:12.653Z,41.27
2023-04-18T06:18:13.704Z,41.29
2023-04-18T06:19:13.766Z,41.28
2023-04-18T06:20:13.854Z,41.28
2023-04-18T06:21:13.899Z,41.35
2023-04-18T06:22:13.950Z,41.39
2023-04-18T06:23:14.066Z,41.38
2023-04-18T06:24:13.354Z,41.37
2023-04-18T06:25:14.124Z,41.42
2023-04-18T06:26:14.171Z,41.42
2023-04-18T06:27:27.900Z,41.43
2023-04-18T06:28:14.240Z,41.41
2023-04-18T06:29:14.220Z,41.41
2023-04-18T06:30:14.222Z,41.41
2023-04-18T06:31:14.239Z,41.44
2023-04-18T06:32:14.206Z,41.42
2023-04-18T06:33:14.222Z,41.43
2023-04-18T06:34:14.433Z,41.49
2023-04-18T06:35:14.223Z,41.47
2023-04-18T06:36:13.178Z,41.52
2023-04-18T06:37:14.184Z,41.62
2023-04-18T06:38:13.148Z,41.63
2023-04-18T06:39:14.171Z,41.71
2023-04-18T06:40:14.144Z,41.72
2023-04-18T06:41:14.143Z,41.74
2023-04-18T06:42:14.129Z,41.75
2023-04-18T06:43:13.120Z,41.81
2023-04-18T06:44:14.118Z,41.85
2023-04-18T06:45:14.106Z,41.86
2023-04-18T06:46:14.192Z,41.85
2023-04-18T06:47:14.100Z,41.87
2023-04-18T06:48:14.089Z,41.91
2023-04-18T06:49:13.082Z,41.92
2023-04-18T06:50:14.083Z,41.90
2023-04-18T06:51:14.078Z,41.96
2023-04-18T06:52:13.146Z,41.96
2023-04-18T06:53:14.212Z,42.00
2023-04-18T06:54:14.457Z,41.98
2023-04-18T06:55:14.342Z,42.01
2023-04-18T06:56:13.542Z,41.96
2023-04-18T06:57:13.449Z,41.96
2023-04-18T06:58:14.494Z,41.93
2023-04-18T06:59:13.679Z,41.92
2023-04-18T07:00:13.598Z,41.92
2023-04-18T07:01:14.727Z,41.89
2023-04-18T07:02:14.745Z,41.89
2023-04-18T07:03:14.930Z,41.89
2023-04-18T07:04:15.185Z,41.91
2023-04-18T07:05:14.924Z,41.94
2023-04-18T07:06:13.968Z,41.94
2023-04-18T07:07:14.996Z,42.00
2023-04-18T07:08:14.057Z,42.00
2023-04-18T07:09:15.125Z,41.99
2023-04-18T07:10:15.213Z,42.01
2023-04-18T07:11:15.271Z,42.01
2023-04-18T07:12:15.298Z,42.03
2023-04-18T07:13:15.353Z,42.07
2023-04-18T07:14:14.699Z,42.05
2023-04-18T07:15:15.495Z,42.10
2023-04-18T07:16:15.553Z,42.10
2023-04-18T07:17:15.595Z,42.12
2023-04-18T07:18:20.490Z,42.11
2023-04-18T07:19:15.658Z,42.11
2023-04-18T07:20:15.645Z,42.12
2023-04-18T07:21:15.625Z,42.11
2023-04-18T07:22:14.633Z,42.13
2023-04-18T07:23:14.600Z,42.12
2023-04-18T07:24:15.819Z,42.13
2023-04-18T07:25:15.613Z,42.14
2023-04-18T07:26:14.595Z,42.15
2023-04-18T07:27:15.651Z,42.17
2023-04-18T07:28:14.572Z,42.15
2023-04-18T07:29:15.601Z,42.18
2023-04-18T07:30:15.649Z,42.17
2023-04-18T07:31:15.748Z,42.19
2023-04-18T07:32:15.765Z,42.20
2023-04-18T07:33:15.831Z,42.18
2023-04-18T07:34:16.099Z,42.16
2023-04-18T07:35:16.011Z,42.22
2023-04-18T07:36:15.991Z,42.16
2023-04-18T07:37:16.051Z,42.19
2023-04-18T07:38:16.109Z,42.19
2023-04-18T07:39:16.167Z,42.22
2023-04-18T07:40:16.247Z,42.21
2023-04-18T07:41:15.298Z,42.19
2023-04-18T07:42:16.327Z,42.20
2023-04-18T07:43:16.396Z,42.25
2023-04-18T07:44:16.532Z,42.21
2023-04-18T07:45:16.520Z,42.25
2023-04-18T07:46:16.658Z,42.25
2023-04-18T07:47:16.598Z,42.25
2023-04-18T07:48:16.690Z,42.26
2023-04-18T07:49:16.879Z,42.23
2023-04-18T07:50:16.774Z,42.24
2023-04-18T07:51:17.050Z,42.27
2023-04-18T07:52:16.875Z,42.40
2023-04-18T07:53:16.929Z,42.55
2023-04-18T07:54:16.968Z,42.55
2023-04-18T07:55:17.016Z,42.83
2023-04-18T07:56:17.055Z,43.11
2023-04-18T07:57:17.118Z,43.30
2023-04-18T07:58:16.147Z,43.15
2023-04-18T07:59:17.299Z,43.15
2023-04-18T08:00:17.205Z,43.26
2023-04-18T08:01:16.259Z,43.33
2023-04-18T08:02:17.502Z,43.43
2023-04-18T08:03:17.421Z,43.41
2023-04-18T08:04:17.625Z,43.73
2023-04-18T08:05:16.627Z,43.82
2023-04-18T08:06:16.401Z,43.85
2023-04-18T08:07:17.428Z,43.86
2023-04-18T08:08:17.441Z,43.92
2023-04-18T08:09:17.492Z,44.08
2023-04-18T08:10:16.506Z,44.25
2023-04-18T08:11:17.530Z,44.29
2023-04-18T08:12:17.553Z,44.40
2023-04-18T08:13:17.573Z,44.38
2023-04-18T08:14:16.602Z,44.40
2023-04-18T08:15:16.854Z,44.50
2023-04-18T08:16:17.627Z,44.37
2023-04-18T08:17:16.672Z,44.61
2023-04-18T08:18:16.679Z,44.59
2023-04-18T08:19:16.730Z,44.57
2023-04-18T08:20:17.728Z,44.59
2023-04-18T08:21:17.744Z,44.60
2023-04-18T08:22:17.729Z,44.60
2023-04-18T08:23:16.755Z,44.63
2023-04-18T08:24:17.733Z,44.73
2023-04-18T08:25:17.728Z,44.73
2023-04-18T08:26:17.746Z,44.79
2023-04-18T08:27:17.741Z,44.78
2023-04-18T08:28:17.730Z,44.83
2023-04-18T08:29:17.743Z,44.80
2023-04-18T08:30:17.745Z,44.87
2023-04-18T08:31:17.866Z,44.82
2023-04-18T08:32:17.768Z,44.85
2023-04-18T08:33:16.781Z,44.88
2023-04-18T08:34:17.771Z,44.95
2023-04-18T08:35:17.778Z,45.02
2023-04-18T08:36:17.798Z,45.07
2023-04-18T08:37:17.796Z,45.14
2023-04-18T08:38:17.813Z,45.06
2023-04-18T08:39:17.781Z,45.06
2023-04-18T08:40:16.793Z,45.15
2023-04-18T08:41:17.080Z,45.21
2023-04-18T08:42:16.834Z,45.16
2023-04-18T08:43:17.786Z,45.05
2023-04-18T08:44:17.785Z,45.04
2023-04-18T08:45:17.774Z,45.06
2023-04-18T08:46:16.815Z,45.11
2023-04-18T08:47:17.839Z,45.08
2023-04-18T08:48:17.872Z,45.17
2023-04-18T08:49:17.008Z,45.19
2023-04-18T08:50:16.889Z,45.15
2023-04-18T08:51:17.815Z,45.11
2023-04-18T08:52:17.841Z,45.03
2023-04-18T08:53:17.831Z,45.10
2023-04-18T08:54:16.827Z,45.07
2023-04-18T08:55:17.913Z,45.04
2023-04-18T08:56:18.100Z,44.98
2023-04-18T08:57:17.865Z,44.82
2023-04-18T08:58:17.880Z,44.85
2023-04-18T08:59:17.908Z,44.88
2023-04-18T09:00:16.899Z,44.93
2023-04-18T09:01:17.940Z,44.98
2023-04-18T09:02:16.939Z,45.03
2023-04-18T09:03:18.061Z,45.10
2023-04-18T09:04:17.014Z,45.09
2023-04-18T09:05:17.917Z,45.16
2023-04-18T09:06:16.921Z,45.21
2023-04-18T09:07:16.942Z,45.21
2023-04-18T09:08:17.926Z,45.26
2023-04-18T09:09:17.930Z,45.20
2023-04-18T09:10:17.936Z,45.26
2023-04-18T09:11:17.930Z,45.19
2023-04-18T09:12:17.927Z,45.22
2023-04-18T09:13:17.935Z,45.25
2023-04-18T09:14:16.910Z,45.22
2023-04-18T09:15:16.928Z,45.19
2023-04-18T09:16:17.966Z,45.23
2023-04-18T09:17:17.924Z,45.27
2023-04-18T09:18:16.916Z,45.27
2023-04-18T09:19:18.159Z,45.30
2023-04-18T09:20:16.914Z,45.24
2023-04-18T09:21:17.888Z,45.29
2023-04-18T09:22:17.973Z,45.32
2023-04-18T09:23:17.954Z,45.36
2023-04-18T09:24:17.899Z,45.48
2023-04-18T09:25:17.910Z,45.54
2023-04-18T09:26:16.905Z,45.60
2023-04-18T09:27:17.907Z,45.76
2023-04-18T09:28:17.897Z,45.81
2023-04-18T09:29:17.939Z,45.90
2023-04-18T09:30:17.943Z,45.94
2023-04-18T09:31:17.166Z,45.95
2023-04-18T09:32:16.994Z,45.94
2023-04-18T09:33:17.002Z,46.03
2023-04-18T09:34:18.012Z,46.15
2023-04-18T09:35:18.058Z,46.17
2023-04-18T09:36:17.043Z,46.27
2023-04-18T09:37:18.072Z,46.21
2023-04-18T09:38:18.103Z,46.27
2023-04-18T09:39:17.093Z,46.44
2023-04-18T09:40:17.098Z,46.41
2023-04-18T09:41:18.510Z,46.42
2023-04-18T09:42:18.087Z,46.34
2023-04-18T09:43:18.080Z,46.17
2023-04-18T09:44:17.443Z,46.12
2023-04-18T09:45:18.069Z,46.08
2023-04-18T09:46:18.146Z,46.05
2023-04-18T09:47:18.095Z,45.84
2023-04-18T09:48:17.033Z,45.62
2023-04-18T09:49:18.272Z,45.49
2023-04-18T09:50:17.026Z,45.55
2023-04-18T09:51:18.103Z,45.49
2023-04-18T09:52:18.091Z,45.29
2023-04-18T09:53:18.825Z,45.11
2023-04-18T09:54:17.995Z,45.06
2023-04-18T09:55:16.992Z,44.96
2023-04-18T09:56:16.997Z,44.89
2023-04-18T09:57:18.036Z,44.81
2023-04-18T09:58:17.983Z,44.75
2023-04-18T09:59:20.528Z,44.77
2023-04-18T10:00:16.952Z,44.75
2023-04-18T10:01:17.050Z,44.77
2023-04-18T10:02:16.963Z,44.74
2023-04-18T10:03:17.011Z,44.72
2023-04-18T10:04:17.285Z,44.69
2023-04-18T10:05:20.781Z,44.67
2023-04-18T10:06:17.906Z,44.64
2023-04-18T10:07:17.969Z,44.63
2023-04-18T10:08:17.904Z,44.63
2023-04-18T10:09:17.887Z,44.58
2023-04-18T10:10:16.884Z,44.54
2023-04-18T10:11:18.007Z,44.53
2023-04-18T10:12:16.905Z,44.49
2023-04-18T10:13:17.895Z,44.47
2023-04-18T10:14:18.122Z,44.47
2023-04-18T10:15:17.917Z,44.41
2023-04-18T10:16:16.929Z,44.41
2023-04-18T10:17:17.850Z,44.42
2023-04-18T10:18:17.854Z,44.37
2023-04-18T10:19:17.854Z,44.37
2023-04-18T10:20:16.890Z,44.35
2023-04-18T10:21:16.899Z,44.28
2023-04-18T10:22:17.956Z,44.28
2023-04-18T10:23:18.018Z,44.29
2023-04-18T10:24:18.001Z,44.35
2023-04-18T10:25:18.035Z,44.36
2023-04-18T10:26:18.099Z,44.33
2023-04-18T10:27:18.140Z,44.52
2023-04-18T10:28:18.137Z,44.44
2023-04-18T10:29:17.156Z,44.38
2023-04-18T10:30:17.189Z,44.36
2023-04-18T10:31:17.223Z,44.34
2023-04-18T10:32:18.239Z,44.36
2023-04-18T10:33:27.967Z,44.33
2023-04-18T10:34:18.379Z,44.35
2023-04-18T10:35:18.248Z,44.36
2023-04-18T10:36:17.277Z,44.40
2023-04-18T10:37:18.221Z,44.40
2023-04-18T10:38:17.204Z,44.40
2023-04-18T10:39:18.222Z,44.39
2023-04-18T10:40:18.193Z,44.38
2023-04-18T10:41:17.198Z,44.41
2023-04-18T10:42:17.597Z,44.37
2023-04-18T10:43:17.161Z,44.37
2023-04-18T10:44:18.230Z,44.38
2023-04-18T10:45:18.165Z,44.41
2023-04-18T10:46:31.175Z,44.37
2023-04-18T10:47:18.656Z,44.37
2023-04-18T10:48:18.194Z,44.36
2023-04-18T10:49:17.132Z,44.37
2023-04-18T10:50:18.214Z,44.41
2023-04-18T10:51:17.138Z,44.47
2023-04-18T10:52:18.108Z,44.50
2023-04-18T10:53:18.095Z,44.53
2023-04-18T10:54:18.108Z,44.55
2023-04-18T10:55:17.165Z,44.54
2023-04-18T10:56:17.069Z,44.56
2023-04-18T10:57:18.060Z,44.56
2023-04-18T10:58:18.058Z,44.54
2023-04-18T10:59:18.057Z,44.53
2023-04-18T11:00:17.068Z,44.48
2023-04-18T11:01:18.111Z,44.53
2023-04-18T11:02:18.089Z,44.89
2023-04-18T11:03:18.220Z,44.74
2023-04-18T11:04:17.204Z,44.61
2023-04-18T11:05:17.998Z,44.54
2023-04-18T11:06:18.005Z,44.45
2023-04-18T11:07:17.993Z,44.39
2023-04-18T11:08:17.978Z,44.35
2023-04-18T11:09:16.973Z,44.30
2023-04-18T11:10:17.966Z,44.24
2023-04-18T11:11:17.990Z,44.18
2023-04-18T11:12:17.939Z,44.14
2023-04-18T11:13:16.992Z,44.10
2023-04-18T11:14:17.184Z,44.05
2023-04-18T11:15:17.918Z,44.01
2023-04-18T11:16:17.944Z,43.96
2023-04-18T11:17:17.930Z,43.90
2023-04-18T11:18:17.915Z,43.82
2023-04-18T11:19:17.949Z,43.78
2023-04-18T11:20:17.958Z,43.78
2023-04-18T11:21:17.983Z,43.73
2023-04-18T11:22:18.021Z,43.71
2023-04-18T11:23:18.020Z,43.64
2023-04-18T11:24:18.055Z,43.61
2023-04-18T11:25:18.104Z,43.52
2023-04-18T11:26:18.101Z,43.44
2023-04-18T11:27:18.141Z,43.38
2023-04-18T11:28:17.142Z,43.30
2023-04-18T11:29:18.167Z,43.30
2023-04-18T11:30:17.206Z,43.16
2023-04-18T11:31:18.216Z,43.11
2023-04-18T11:32:18.287Z,43.03
2023-04-18T11:33:17.337Z,43.00
2023-04-18T11:34:17.285Z,43.03
2023-04-18T11:35:17.327Z,42.95
2023-04-18T11:36:17.350Z,42.88
2023-04-18T11:37:18.634Z,42.91
2023-04-18T11:38:18.383Z,42.83
2023-04-18T11:39:18.405Z,42.82
2023-04-18T11:40:17.587Z,42.79
2023-04-18T11:41:18.471Z,42.73
2023-04-18T11:42:18.630Z,42.67
2023-04-18T11:43:18.557Z,42.63
2023-04-18T11:44:18.540Z,42.61
2023-04-18T11:45:18.558Z,42.58
2023-04-18T11:46:18.693Z,42.60
2023-04-18T11:47:17.617Z,42.52
2023-04-18T11:48:18.642Z,42.54
2023-04-18T11:49:17.660Z,42.47
2023-04-18T11:50:17.697Z,42.47
2023-04-18T11:51:18.735Z,42.34
2023-04-18T11:52:17.755Z,42.24
2023-04-18T11:53:17.796Z,42.24
2023-04-18T11:54:17.831Z,42.15
2023-04-18T11:55:17.990Z,42.05
2023-04-18T11:56:17.890Z,42.01
2023-04-18T11:57:17.917Z,42.00
2023-04-18T11:58:18.939Z,41.92
2023-04-18T11:59:18.005Z,41.84
2023-04-18T12:00:19.010Z,41.78
2023-04-18T12:01:18.050Z,41.74
2023-04-18T12:02:19.216Z,41.64
2023-04-18T12:03:18.233Z,41.58
2023-04-18T12:04:19.537Z,41.64
2023-04-18T12:05:19.518Z,41.50
2023-04-18T12:06:18.310Z,41.44
2023-04-18T12:07:18.244Z,41.46
2023-04-18T12:08:19.267Z,41.38
2023-04-18T12:09:19.321Z,41.36
2023-04-18T12:10:19.358Z,41.36
2023-04-18T12:11:19.370Z,41.30
2023-04-18T12:12:19.421Z,41.29
2023-04-18T12:13:18.438Z,41.23
2023-04-18T12:14:19.471Z,41.15
2023-04-18T12:15:18.557Z,41.12
2023-04-18T12:16:19.646Z,41.11
2023-04-18T12:17:19.632Z,41.05
2023-04-18T12:18:19.673Z,41.04
2023-04-18T12:19:19.690Z,41.06
2023-04-18T12:20:18.734Z,41.05
2023-04-18T12:21:18.769Z,41.02
2023-04-18T12:22:18.818Z,40.91
2023-04-18T12:23:19.851Z,40.83
2023-04-18T12:24:19.896Z,40.82
2023-04-18T12:25:20.017Z,40.71
2023-04-18T12:26:19.988Z,40.67
2023-04-18T12:27:19.031Z,40.59
2023-04-18T12:28:20.270Z,40.45
2023-04-18T12:29:19.090Z,40.51
2023-04-18T12:30:19.264Z,40.39
2023-04-18T12:31:20.266Z,40.30
2023-04-18T12:32:19.236Z,40.37
2023-04-18T12:33:19.265Z,40.64
2023-04-18T12:34:20.318Z,40.63
2023-04-18T12:35:20.332Z,40.69
2023-04-18T12:36:19.374Z,41.06
2023-04-18T12:37:19.418Z,41.06
2023-04-18T12:38:19.410Z,41.24
2023-04-18T12:39:19.436Z,41.27
2023-04-18T12:40:20.595Z,42.43
2023-04-18T12:41:19.465Z,42.66
2023-04-18T12:42:19.516Z,42.93
2023-04-18T12:43:20.470Z,42.80
2023-04-18T12:44:20.486Z,42.93
2023-04-18T12:45:19.486Z,42.90
2023-04-18T12:46:19.585Z,42.75
2023-04-18T12:47:20.538Z,42.72
2023-04-18T12:48:19.486Z,42.65
2023-04-18T12:49:20.472Z,42.65
2023-04-18T12:50:19.536Z,42.57
2023-04-18T12:51:20.489Z,42.46
2023-04-18T12:52:20.529Z,42.26
2023-04-18T12:53:20.512Z,42.19
2023-04-18T12:54:20.520Z,42.09
2023-04-18T12:55:19.519Z,41.93
2023-04-18T12:56:20.554Z,42.00
2023-04-18T12:57:19.558Z,42.22
2023-04-18T12:58:20.660Z,41.95
2023-04-18T12:59:19.599Z,42.19
2023-04-18T13:00:19.606Z,42.37
2023-04-18T13:01:20.660Z,42.38
2023-04-18T13:02:19.745Z,42.33
2023-04-18T13:03:20.859Z,42.38
2023-04-18T13:04:21.039Z,42.38
2023-04-18T13:05:19.665Z,42.37
2023-04-18T13:06:20.691Z,42.41
2023-04-18T13:07:19.693Z,42.24
2023-04-18T13:08:20.732Z,42.08
2023-04-18T13:09:20.720Z,42.15
2023-04-18T13:10:20.717Z,42.16
2023-04-18T13:11:20.735Z,41.97
2023-04-18T13:12:20.732Z,41.89
2023-04-18T13:13:20.735Z,42.13
2023-04-18T13:14:20.766Z,42.00
2023-04-18T13:15:20.754Z,42.03
2023-04-18T13:16:19.771Z,41.96
2023-04-18T13:17:19.818Z,42.06
2023-04-18T13:18:20.782Z,42.18
2023-04-18T13:19:19.817Z,42.06
2023-04-18T13:20:19.795Z,41.87
2023-04-18T13:21:20.787Z,41.80
2023-04-18T13:22:20.798Z,41.89
2023-04-18T13:23:20.820Z,42.05
2023-04-18T13:24:20.821Z,41.98
2023-04-18T13:25:19.816Z,42.10
2023-04-18T13:26:20.831Z,42.34
2023-04-18T13:27:19.854Z,42.50
2023-04-18T13:28:20.858Z,42.50
2023-04-18T13:29:19.972Z,42.48
2023-04-18T13:30:19.890Z,42.10
2023-04-18T13:31:20.915Z,42.17
2023-04-18T13:32:20.890Z,42.19
2023-04-18T13:33:20.889Z,42.16
2023-04-18T13:34:20.905Z,42.12
2023-04-18T13:35:20.932Z,42.21
2023-04-18T13:36:19.896Z,42.18
2023-04-18T13:37:19.920Z,42.17
2023-04-18T13:38:20.918Z,42.02
2023-04-18T13:39:19.919Z,42.01
2023-04-18T13:40:19.914Z,42.13
2023-04-18T13:41:21.254Z,42.24
2023-04-18T13:42:20.944Z,42.30
2023-04-18T13:43:19.942Z,42.32
2023-04-18T13:44:19.946Z,42.44
2023-04-18T13:45:19.945Z,42.76
2023-04-18T13:46:21.036Z,42.93
2023-04-18T13:47:20.037Z,42.90
2023-04-18T13:48:19.984Z,42.91
2023-04-18T13:49:20.991Z,42.82
2023-04-18T13:50:20.990Z,42.74
2023-04-18T13:51:21.024Z,42.70
2023-04-18T13:52:21.015Z,42.73
2023-04-18T13:53:21.047Z,42.31
2023-04-18T13:54:20.021Z,42.28
2023-04-18T13:55:20.025Z,42.35
2023-04-18T13:56:20.049Z,42.38
2023-04-18T13:57:21.069Z,42.42
2023-04-18T13:58:20.089Z,42.41
2023-04-18T13:59:21.070Z,42.11
2023-04-18T14:00:21.098Z,41.88
2023-04-18T14:01:21.168Z,41.89
2023-04-18T14:02:20.213Z,42.00
2023-04-18T14:03:20.284Z,42.12
2023-04-18T14:04:20.504Z,42.20
2023-04-18T14:05:21.175Z,42.28
2023-04-18T14:06:20.168Z,42.32
2023-04-18T14:07:20.226Z,42.66
2023-04-18T14:08:20.219Z,42.44
2023-04-18T14:09:21.233Z,42.64
2023-04-18T14:10:20.282Z,42.65
2023-04-18T14:11:21.299Z,43.23
2023-04-18T14:12:20.323Z,42.99
2023-04-18T14:13:20.360Z,42.90
2023-04-18T14:14:21.364Z,42.75
2023-04-18T14:15:20.358Z,42.68
2023-04-18T14:16:20.457Z,42.61
2023-04-18T14:17:21.403Z,42.70
2023-04-18T14:18:20.423Z,42.62
2023-04-18T14:19:21.435Z,42.67
2023-04-18T14:20:20.462Z,42.74
2023-04-18T14:21:21.480Z,42.68
2023-04-18T14:22:20.498Z,42.74
2023-04-18T14:23:21.506Z,42.69
2023-04-18T14:24:21.495Z,42.95
2023-04-18T14:25:20.541Z,42.72
2023-04-18T14:26:22.185Z,42.42
2023-04-18T14:27:21.581Z,42.08
2023-04-18T14:28:21.618Z,41.82
2023-04-18T14:29:20.640Z,41.58
2023-04-18T14:30:21.666Z,41.43
2023-04-18T14:31:21.727Z,41.26
2023-04-18T14:32:21.755Z,41.30
2023-04-18T14:33:21.775Z,41.22
2023-04-18T14:34:21.795Z,41.33
2023-04-18T14:35:20.852Z,41.43
2023-04-18T14:36:21.901Z,41.42
2023-04-18T14:37:21.940Z,41.31
2023-04-18T14:38:21.966Z,41.32
2023-04-18T14:39:22.027Z,41.30
2023-04-18T14:40:22.057Z,41.27
2023-04-18T14:41:22.099Z,41.33
2023-04-18T14:42:22.116Z,41.49
2023-04-18T14:43:21.174Z,41.61
2023-04-18T14:44:22.216Z,41.63
2023-04-18T14:45:22.283Z,41.50
2023-04-18T14:46:21.404Z,41.51
2023-04-18T14:47:24.165Z,41.50
2023-04-18T14:48:21.403Z,41.46
2023-04-18T14:49:22.330Z,41.52
2023-04-18T14:50:21.358Z,41.54
2023-04-18T14:51:21.405Z,41.64
2023-04-18T14:52:22.322Z,41.49
2023-04-18T14:53:22.319Z,41.46
2023-04-18T14:54:22.309Z,41.44
2023-04-18T14:55:21.331Z,41.37
2023-04-18T14:56:22.360Z,41.29
2023-04-18T14:57:22.278Z,41.18
2023-04-18T14:58:21.270Z,41.16
2023-04-18T14:59:21.256Z,41.04
2023-04-18T15:00:22.260Z,41.08
2023-04-18T15:01:22.301Z,41.06
2023-04-18T15:02:22.401Z,41.11
2023-04-18T15:03:21.393Z,41.05
2023-04-18T15:04:21.596Z,41.05
2023-04-18T15:05:22.227Z,40.89
2023-04-18T15:06:21.217Z,40.94
2023-04-18T15:07:22.216Z,40.90
2023-04-18T15:08:22.272Z,40.72
2023-04-18T15:09:21.191Z,40.85
2023-04-18T15:10:21.182Z,40.79
2023-04-18T15:11:22.237Z,40.69
2023-04-18T15:12:22.162Z,40.58
2023-04-18T15:13:22.201Z,40.71
2023-04-18T15:14:22.193Z,40.57
2023-04-18T15:15:21.255Z,40.66
2023-04-18T15:16:21.341Z,40.42
2023-04-18T15:17:21.403Z,40.51
2023-04-18T15:18:21.519Z,40.47
2023-04-18T15:19:22.495Z,40.62
2023-04-18T15:20:23.891Z,40.58
2023-04-18T15:21:22.700Z,40.45
2023-04-18T15:22:21.729Z,40.53
2023-04-18T15:23:22.801Z,40.38
2023-04-18T15:24:22.857Z,40.32
2023-04-18T15:25:21.926Z,40.15
2023-04-18T15:26:22.977Z,40.33
2023-04-18T15:27:22.074Z,40.54
2023-04-18T15:28:22.094Z,40.69
2023-04-18T15:29:22.166Z,40.83
